Terminal Aerodrome Forecast
Issued by NWS

Home | Current Version | Previous Version | Text Only | Print | Product List | Glossary On
Versions: 1 2 3 4 5 6 7 8 9 10 11 12 13 14 15 16 17 18 19 20 21 22 23 24 25 26 27 28 29 30 31
000
FTUS44 KOUN 180526
TAFPNC
TAF
KPNC 180526Z 1806/1906 12008KT P6SM BKN050
     FM181300 15008KT 4SM BR OVC011
      TEMPO 1815/1818 2SM -RA
     FM181800 12009KT P6SM OVC015 PROB30 1821/1824 2SM TSRA OVC015CB
     FM190300 12008KT P6SM OVC100=

USA.gov is the U.S. government's official web portal to all federal, state and local government web resources and services.